Time;durP1;ratioP1;P1;durP2;ratioP2;P2;SDS_P1;SDS_P2;PMS_P1;PMS_P2;Temp;Humidity;BMP_temperature;BMP_pressure;BME280_temperature;BME280_humidity;BME280_pressure;Samples;Min_cycle;Max_cycle;Signal;HPM_P1;HPM_P2
2023/04/02 00:02:26;;;;;;;3.23;1.93;;;;;;;;;;5049115;28;20206;-77
2023/04/02 00:05:15;;;;;;;2.37;1.90;;;;;;;;;;5047529;28;20182;-74
2023/04/02 00:07:43;;;;;;;2.60;2.00;;;;;;;;;;5050574;28;20206;-75
2023/04/02 00:10:29;;;;;;;6.20;2.70;;;;;;;;;;5050309;28;20530;-75
2023/04/02 00:13:00;;;;;;;3.80;2.10;;;;;;;;;;5045620;28;20201;-74
2023/04/02 00:15:26;;;;;;;3.90;2.10;;;;;;;;;;5050638;28;20166;-74
2023/04/02 00:17:52;;;;;;;3.17;2.10;;;;;;;;;;5050318;28;20205;-73
2023/04/02 00:20:19;;;;;;;3.40;2.37;;;;;;;;;;5039089;28;20183;-74
2023/04/02 00:22:45;;;;;;;5.43;2.90;;;;;;;;;;5029742;28;20181;-74
2023/04/02 00:25:14;;;;;;;3.27;2.30;;;;;;;;;;5038925;28;20174;-73
2023/04/02 00:27:41;;;;;;;7.03;3.10;;;;;;;;;;5049321;28;20288;-73
2023/04/02 00:30:08;;;;;;;4.10;2.60;;;;;;;;;;5049682;28;20839;-73
2023/04/02 00:32:35;;;;;;;5.70;2.40;;;;;;;;;;5047273;28;20650;-74
2023/04/02 00:35:01;;;;;;;3.80;2.00;;;;;;;;;;5046830;28;20188;-76
2023/04/02 00:37:37;;;;;;;3.90;2.17;;;;;;;;;;5049342;28;20221;-74
2023/04/02 00:40:08;;;;;;;3.87;1.97;;;;;;;;;;5048282;28;20181;-73
2023/04/02 00:42:39;;;;;;;3.17;2.07;;;;;;;;;;5049316;28;20169;-74
2023/04/02 00:45:08;;;;;;;5.87;2.10;;;;;;;;;;5048091;28;20193;-74
2023/04/02 00:47:36;;;;;;;3.33;2.00;;;;;;;;;;5048811;28;20783;-74
2023/04/02 00:50:06;;;;;;;3.73;2.27;;;;;;;;;;5040380;28;20267;-74
2023/04/02 00:52:33;;;;;;;3.60;1.93;;;;;;;;;;5043167;28;20220;-73
2023/04/02 00:55:02;;;;;;;2.60;2.10;;;;;;;;;;5031661;28;20190;-74
2023/04/02 00:57:30;;;;;;;3.83;1.90;;;;;;;;;;5048389;28;20206;-74
2023/04/02 01:00:07;;;;;;;3.53;2.00;;;;;;;;;;5049194;28;20185;-74
2023/04/02 01:02:37;;;;;;;3.13;2.00;;;;;;;;;;5031740;28;20177;-74
2023/04/02 01:05:19;;;;;;;6.37;2.50;;;;;;;;;;5048875;28;20201;-74
2023/04/02 01:07:51;;;;;;;3.97;2.20;;;;;;;;;;5049695;28;20188;-73
2023/04/02 01:10:24;;;;;;;2.63;1.90;;;;;;;;;;5049065;28;20253;-74
2023/04/02 01:12:58;;;;;;;3.27;2.20;;;;;;;;;;5037253;28;20190;-74
2023/04/02 01:15:36;;;;;;;4.13;2.30;;;;;;;;;;5047195;28;20526;-74
2023/04/02 01:18:17;;;;;;;4.27;2.37;;;;;;;;;;5047607;28;20558;-74
2023/04/02 01:20:43;;;;;;;2.60;2.10;;;;;;;;;;5035981;28;20201;-74
2023/04/02 01:23:15;;;;;;;2.88;2.08;;;;;;;;;;5041702;28;20787;-74
2023/04/02 01:26:05;;;;;;;3.93;2.40;;;;;;;;;;5035041;28;20183;-74
2023/04/02 01:28:47;;;;;;;2.93;2.10;;;;;;;;;;5046479;28;20205;-73
2023/04/02 01:31:14;;;;;;;5.97;2.93;;;;;;;;;;5047910;28;20198;-74
2023/04/02 01:33:40;;;;;;;3.77;2.50;;;;;;;;;;5045132;28;20197;-74
2023/04/02 01:36:07;;;;;;;6.87;4.00;;;;;;;;;;5047744;28;20596;-75
2023/04/02 01:38:36;;;;;;;4.13;2.83;;;;;;;;;;5046275;28;20214;-75
2023/04/02 01:41:13;;;;;;;6.53;3.35;;;;;;;;;;5047788;28;20416;-75
2023/04/02 01:43:46;;;;;;;6.77;3.50;;;;;;;;;;5048277;28;20173;-74
2023/04/02 01:46:24;;;;;;;7.37;3.83;;;;;;;;;;5048774;28;20189;-74
2023/04/02 01:48:52;;;;;;;9.70;4.87;;;;;;;;;;5047038;28;20205;-74
2023/04/02 01:51:25;;;;;;;7.80;3.93;;;;;;;;;;5043924;28;20305;-74
2023/04/02 01:53:52;;;;;;;7.17;3.43;;;;;;;;;;5059123;28;20235;-74
2023/04/02 01:56:18;;;;;;;7.77;3.63;;;;;;;;;;5031043;28;20300;-74
2023/04/02 01:58:45;;;;;;;8.97;3.90;;;;;;;;;;5047255;28;20222;-74
2023/04/02 02:01:13;;;;;;;4.10;2.60;;;;;;;;;;5045635;28;20212;-75
2023/04/02 02:03:41;;;;;;;4.30;2.90;;;;;;;;;;5046819;28;20724;-76
2023/04/02 02:06:10;;;;;;;4.30;2.70;;;;;;;;;;5040316;28;20613;-74
2023/04/02 02:08:46;;;;;;;4.50;2.40;;;;;;;;;;5047169;28;20196;-74
2023/04/02 02:11:15;;;;;;;8.70;3.90;;;;;;;;;;5046799;28;20687;-74
2023/04/02 02:13:51;;;;;;;5.53;2.93;;;;;;;;;;5041023;28;20175;-74
2023/04/02 02:16:19;;;;;;;9.23;4.30;;;;;;;;;;5043623;28;20778;-74
2023/04/02 02:18:49;;;;;;;4.83;2.87;;;;;;;;;;5050972;28;20197;-74
2023/04/02 02:21:21;;;;;;;5.27;3.07;;;;;;;;;;5051300;28;20204;-74
2023/04/02 02:23:48;;;;;;;4.07;2.33;;;;;;;;;;5051181;28;20723;-74
2023/04/02 02:26:14;;;;;;;3.97;2.40;;;;;;;;;;5055495;28;20190;-73
2023/04/02 02:28:42;;;;;;;5.40;2.93;;;;;;;;;;5052457;28;20231;-74
2023/04/02 02:31:16;;;;;;;4.53;2.73;;;;;;;;;;5050883;28;20209;-74
2023/04/02 02:33:46;;;;;;;3.90;2.73;;;;;;;;;;5050312;28;20180;-74
2023/04/02 02:36:22;;;;;;;5.13;3.27;;;;;;;;;;5050813;28;20955;-73
2023/04/02 02:39:08;;;;;;;4.00;2.53;;;;;;;;;;5048528;28;20245;-74
2023/04/02 02:41:44;;;;;;;6.70;3.90;;;;;;;;;;5050604;28;20202;-74
2023/04/02 02:44:34;;;;;;;5.17;3.53;;;;;;;;;;5049969;28;20740;-74
2023/04/02 02:47:06;;;;;;;5.40;3.20;;;;;;;;;;5050947;28;20638;-74
2023/04/02 02:49:35;;;;;;;4.20;2.80;;;;;;;;;;5050687;28;20272;-74
2023/04/02 02:52:03;;;;;;;5.70;3.50;;;;;;;;;;5045354;28;20254;-75
2023/04/02 02:54:38;;;;;;;3.67;3.00;;;;;;;;;;5050582;28;20205;-74
2023/04/02 02:57:07;;;;;;;3.17;2.53;;;;;;;;;;5050160;28;20643;-74
2023/04/02 02:59:33;;;;;;;7.80;4.10;;;;;;;;;;5050539;28;20311;-74
2023/04/02 03:02:01;;;;;;;5.60;3.23;;;;;;;;;;5049606;28;20561;-74
2023/04/02 03:04:34;;;;;;;5.03;3.23;;;;;;;;;;5066762;28;20174;-74
2023/04/02 03:07:02;;;;;;;6.03;3.40;;;;;;;;;;5046857;28;20237;-74
2023/04/02 03:09:36;;;;;;;7.27;4.70;;;;;;;;;;5051585;28;20552;-74
2023/04/02 03:12:03;;;;;;;5.40;3.50;;;;;;;;;;5042771;28;20659;-74
2023/04/02 03:14:35;;;;;;;6.13;3.50;;;;;;;;;;5050100;28;20186;-74
2023/04/02 03:17:25;;;;;;;6.90;4.73;;;;;;;;;;5066769;28;20228;-75
2023/04/02 03:19:58;;;;;;;5.57;3.70;;;;;;;;;;5062958;28;20215;-74
2023/04/02 03:22:37;;;;;;;5.17;3.50;;;;;;;;;;5049093;28;20862;-74
2023/04/02 03:25:29;;;;;;;3.47;3.00;;;;;;;;;;5050908;28;20185;-74
2023/04/02 03:28:03;;;;;;;5.20;3.47;;;;;;;;;;5045429;28;20625;-74
2023/04/02 03:30:41;;;;;;;5.03;3.67;;;;;;;;;;5050340;28;20217;-76
2023/04/02 03:33:24;;;;;;;6.07;3.63;;;;;;;;;;5049146;28;20173;-77
2023/04/02 03:35:58;;;;;;;6.83;3.67;;;;;;;;;;5064394;28;20563;-74
2023/04/02 03:38:27;;;;;;;5.07;4.10;;;;;;;;;;5047809;28;20259;-75
2023/04/02 03:40:57;;;;;;;4.80;3.67;;;;;;;;;;5045318;28;20194;-74
2023/04/02 03:43:24;;;;;;;5.13;3.93;;;;;;;;;;5050080;28;20178;-75
2023/04/02 03:45:57;;;;;;;6.43;4.13;;;;;;;;;;5049890;28;20181;-74
2023/04/02 03:48:26;;;;;;;4.73;3.80;;;;;;;;;;5047691;28;20256;-75
2023/04/02 03:50:56;;;;;;;5.27;4.77;;;;;;;;;;5046809;28;20209;-74
2023/04/02 03:53:24;;;;;;;4.40;3.80;;;;;;;;;;5046950;28;20186;-74
2023/04/02 03:55:50;;;;;;;5.77;4.27;;;;;;;;;;5047423;28;20657;-74
2023/04/02 03:58:21;;;;;;;4.80;3.47;;;;;;;;;;5045750;28;20217;-74
2023/04/02 04:01:00;;;;;;;4.20;3.70;;;;;;;;;;5048890;28;20202;-77
2023/04/02 04:03:30;;;;;;;5.57;3.80;;;;;;;;;;5042484;28;20693;-74
2023/04/02 04:06:07;;;;;;;7.27;4.10;;;;;;;;;;5057567;28;20210;-74
2023/04/02 04:08:41;;;;;;;4.40;3.70;;;;;;;;;;5040437;28;20185;-74
2023/04/02 04:11:14;;;;;;;3.73;3.40;;;;;;;;;;5044319;28;20205;-74
2023/04/02 04:13:43;;;;;;;3.60;3.30;;;;;;;;;;5032062;28;20189;-74
2023/04/02 04:16:13;;;;;;;4.03;3.43;;;;;;;;;;5049174;28;20690;-76
2023/04/02 04:18:47;;;;;;;5.17;3.93;;;;;;;;;;5046475;28;20216;-74
2023/04/02 04:21:29;;;;;;;4.43;4.00;;;;;;;;;;5048885;28;20201;-74
2023/04/02 04:24:04;;;;;;;6.33;4.67;;;;;;;;;;5047643;28;20190;-75
2023/04/02 04:26:38;;;;;;;5.10;3.97;;;;;;;;;;5041633;28;20170;-74
2023/04/02 04:29:11;;;;;;;6.93;4.80;;;;;;;;;;5046473;28;20935;-74
2023/04/02 04:31:40;;;;;;;4.60;3.93;;;;;;;;;;5042879;28;20289;-75
2023/04/02 04:34:15;;;;;;;7.53;4.53;;;;;;;;;;5046293;28;20192;-78
2023/04/02 04:36:53;;;;;;;4.53;4.10;;;;;;;;;;5048237;28;20185;-74
2023/04/02 04:39:28;;;;;;;17.33;13.50;;;;;;;;;;5048047;28;20182;-74
2023/04/02 04:41:59;;;;;;;14.50;11.00;;;;;;;;;;5048139;28;20250;-74
2023/04/02 04:44:34;;;;;;;8.77;6.20;;;;;;;;;;5048101;28;20491;-74
2023/04/02 04:47:09;;;;;;;6.00;4.80;;;;;;;;;;5046327;28;20184;-74
2023/04/02 04:49:46;;;;;;;5.93;4.50;;;;;;;;;;5048209;28;20181;-75
2023/04/02 04:52:20;;;;;;;5.73;4.40;;;;;;;;;;5046629;28;20278;-75
2023/04/02 04:54:47;;;;;;;6.73;5.03;;;;;;;;;;5042894;28;20190;-74
2023/04/02 04:57:22;;;;;;;4.80;4.17;;;;;;;;;;5044831;28;20220;-74
2023/04/02 04:59:55;;;;;;;6.20;4.37;;;;;;;;;;5042174;28;20189;-74
2023/04/02 05:02:24;;;;;;;4.57;4.03;;;;;;;;;;5043274;28;20200;-74
2023/04/02 05:04:51;;;;;;;7.33;5.10;;;;;;;;;;5049897;28;20213;-74
2023/04/02 05:07:25;;;;;;;5.37;4.47;;;;;;;;;;5057969;28;20216;-74
2023/04/02 05:09:58;;;;;;;6.00;4.87;;;;;;;;;;5045772;28;20198;-74
2023/04/02 05:12:44;;;;;;;5.97;5.13;;;;;;;;;;5040640;28;20522;-74
2023/04/02 05:15:13;;;;;;;5.20;4.70;;;;;;;;;;5047034;28;20248;-74
2023/04/02 05:17:40;;;;;;;5.43;4.57;;;;;;;;;;5062149;28;20209;-74
2023/04/02 05:20:15;;;;;;;7.00;4.50;;;;;;;;;;5052346;28;20555;-74
2023/04/02 05:22:49;;;;;;;7.43;5.20;;;;;;;;;;5047037;28;20236;-74
2023/04/02 05:25:22;;;;;;;5.30;4.50;;;;;;;;;;5047129;28;20726;-74
2023/04/02 05:27:53;;;;;;;6.10;4.53;;;;;;;;;;5046853;28;20173;-74
2023/04/02 05:30:20;;;;;;;5.13;4.20;;;;;;;;;;5031104;28;20185;-75
2023/04/02 05:32:49;;;;;;;4.57;4.00;;;;;;;;;;5028141;28;20210;-75
2023/04/02 05:35:18;;;;;;;4.43;3.97;;;;;;;;;;5064553;28;20759;-74
2023/04/02 05:37:45;;;;;;;7.33;5.23;;;;;;;;;;5046643;28;20233;-74
2023/04/02 05:40:14;;;;;;;5.30;4.80;;;;;;;;;;5049483;28;20232;-74
2023/04/02 05:42:44;;;;;;;6.17;4.50;;;;;;;;;;5046562;28;20189;-74
2023/04/02 05:45:24;;;;;;;5.30;4.70;;;;;;;;;;5045953;28;20184;-73
2023/04/02 05:47:52;;;;;;;5.40;4.83;;;;;;;;;;5046006;28;20239;-73
2023/04/02 05:50:29;;;;;;;5.67;4.80;;;;;;;;;;5051838;28;20181;-74
2023/04/02 05:52:57;;;;;;;6.87;5.37;;;;;;;;;;5051234;28;20244;-74
2023/04/02 05:55:28;;;;;;;5.40;4.90;;;;;;;;;;5052464;28;20676;-74
2023/04/02 05:58:00;;;;;;;5.57;5.03;;;;;;;;;;5057113;28;20274;-74
2023/04/02 06:00:38;;;;;;;6.80;5.57;;;;;;;;;;5068452;28;20583;-74
2023/04/02 06:03:17;;;;;;;5.93;5.30;;;;;;;;;;5050579;28;20177;-76
2023/04/02 06:05:45;;;;;;;6.10;5.20;;;;;;;;;;5051814;28;20189;-74
2023/04/02 06:08:20;;;;;;;5.97;5.20;;;;;;;;;;5051839;28;20185;-74
2023/04/02 06:10:53;;;;;;;5.73;5.10;;;;;;;;;;5052282;28;20749;-74
2023/04/02 06:13:22;;;;;;;7.63;5.60;;;;;;;;;;5049651;28;20227;-74
2023/04/02 06:15:48;;;;;;;7.27;5.27;;;;;;;;;;5035655;28;20177;-76
2023/04/02 06:18:23;;;;;;;5.97;5.37;;;;;;;;;;5052470;28;20270;-76
2023/04/02 06:20:51;;;;;;;7.63;5.03;;;;;;;;;;5051446;28;20225;-74
2023/04/02 06:23:21;;;;;;;6.10;5.03;;;;;;;;;;5050654;28;20237;-75
2023/04/02 06:25:57;;;;;;;5.20;4.70;;;;;;;;;;5052207;28;20189;-75
2023/04/02 06:28:32;;;;;;;5.50;5.00;;;;;;;;;;5052220;28;20178;-74
2023/04/02 06:31:00;;;;;;;6.57;5.30;;;;;;;;;;5051847;28;20576;-74
2023/04/02 06:33:33;;;;;;;7.30;5.30;;;;;;;;;;5050048;28;20189;-75
2023/04/02 06:35:59;;;;;;;10.93;6.87;;;;;;;;;;5049337;28;20190;-75
2023/04/02 06:38:30;;;;;;;6.00;5.30;;;;;;;;;;5051812;28;20631;-75
2023/04/02 06:41:02;;;;;;;6.57;4.80;;;;;;;;;;5051577;28;20609;-74
2023/04/02 06:43:59;;;;;;;7.90;4.97;;;;;;;;;;5048901;28;20213;-75
2023/04/02 06:46:59;;;;;;;8.57;5.27;;;;;;;;;;5040032;28;20201;-74
2023/04/02 06:49:33;;;;;;;5.90;4.83;;;;;;;;;;5040043;28;20177;-74
2023/04/02 06:52:03;;;;;;;5.90;4.77;;;;;;;;;;5047501;28;20198;-75
2023/04/02 06:54:30;;;;;;;6.17;4.73;;;;;;;;;;5036054;28;20187;-75
2023/04/02 06:57:01;;;;;;;5.40;4.50;;;;;;;;;;5039400;28;20209;-76
2023/04/02 06:59:33;;;;;;;5.00;4.30;;;;;;;;;;5049577;28;20253;-75
2023/04/02 07:02:05;;;;;;;5.50;4.43;;;;;;;;;;5049337;28;20210;-75
2023/04/02 07:04:32;;;;;;;4.83;4.33;;;;;;;;;;5050798;28;20227;-77
2023/04/02 07:06:58;;;;;;;4.57;4.10;;;;;;;;;;5048563;28;20186;-75
2023/04/02 07:09:29;;;;;;;4.37;3.87;;;;;;;;;;5049339;28;20182;-75
2023/04/02 07:11:58;;;;;;;4.23;3.33;;;;;;;;;;5048976;28;20217;-77
2023/04/02 07:14:25;;;;;;;3.67;3.17;;;;;;;;;;5049979;28;20185;-75
2023/04/02 07:16:52;;;;;;;3.90;3.20;;;;;;;;;;5031326;28;20210;-74
2023/04/02 07:19:21;;;;;;;3.37;2.90;;;;;;;;;;5051339;28;20621;-75
2023/04/02 07:21:50;;;;;;;5.67;3.10;;;;;;;;;;5051125;28;20202;-78
2023/04/02 07:24:18;;;;;;;3.40;2.80;;;;;;;;;;5064013;28;20247;-78
2023/04/02 07:26:46;;;;;;;4.17;3.10;;;;;;;;;;5051019;28;20199;-77
2023/04/02 07:29:14;;;;;;;3.23;2.83;;;;;;;;;;5047062;28;20778;-77
2023/04/02 07:31:40;;;;;;;4.83;2.90;;;;;;;;;;5047006;28;20199;-80
2023/04/02 07:34:07;;;;;;;3.00;2.73;;;;;;;;;;5048817;28;20185;-75
2023/04/02 07:36:34;;;;;;;4.20;2.93;;;;;;;;;;5042409;28;20186;-78
2023/04/02 07:39:00;;;;;;;4.57;2.73;;;;;;;;;;5045663;28;20202;-75
2023/04/02 07:41:27;;;;;;;3.63;3.30;;;;;;;;;;5048965;28;20959;-75
2023/04/02 07:43:53;;;;;;;3.40;3.10;;;;;;;;;;5049535;28;20185;-77
2023/04/02 07:46:19;;;;;;;3.50;2.80;;;;;;;;;;5044385;28;20224;-77
2023/04/02 07:48:46;;;;;;;3.30;3.00;;;;;;;;;;5048611;28;20174;-76
2023/04/02 07:51:14;;;;;;;3.40;3.10;;;;;;;;;;5045535;28;20681;-76
2023/04/02 07:53:40;;;;;;;3.20;2.97;;;;;;;;;;5047786;28;20178;-79
2023/04/02 07:56:07;;;;;;;4.00;3.60;;;;;;;;;;5048341;28;20190;-77
2023/04/02 07:58:34;;;;;;;4.27;3.87;;;;;;;;;;5042701;28;20201;-77
2023/04/02 08:01:02;;;;;;;4.10;3.50;;;;;;;;;;5043218;28;20194;-77
2023/04/02 08:03:28;;;;;;;3.83;3.40;;;;;;;;;;5048793;28;20307;-77
2023/04/02 08:05:56;;;;;;;4.43;4.03;;;;;;;;;;5031853;28;20259;-77
2023/04/02 08:08:23;;;;;;;4.30;3.90;;;;;;;;;;5048961;28;20645;-77
2023/04/02 08:10:49;;;;;;;4.83;4.07;;;;;;;;;;5049600;28;20260;-77
2023/04/02 08:13:16;;;;;;;4.20;3.70;;;;;;;;;;5050725;28;20602;-77
2023/04/02 08:15:43;;;;;;;4.77;4.37;;;;;;;;;;5046290;28;20182;-77
2023/04/02 08:18:10;;;;;;;5.07;4.57;;;;;;;;;;5050492;28;20205;-76
2023/04/02 08:20:36;;;;;;;4.80;4.40;;;;;;;;;;5050681;28;20247;-77
2023/04/02 08:23:03;;;;;;;5.10;4.60;;;;;;;;;;5050679;28;20231;-76
2023/04/02 08:25:29;;;;;;;7.77;4.57;;;;;;;;;;5049637;28;20178;-77
2023/04/02 08:27:56;;;;;;;5.03;4.53;;;;;;;;;;5051223;28;20193;-77
2023/04/02 08:30:22;;;;;;;5.63;4.77;;;;;;;;;;5043824;28;20921;-76
2023/04/02 08:32:48;;;;;;;5.10;4.60;;;;;;;;;;5049814;28;20477;-77
2023/04/02 08:35:15;;;;;;;5.40;4.90;;;;;;;;;;5049372;28;20182;-76
2023/04/02 08:37:42;;;;;;;5.27;4.50;;;;;;;;;;5049272;28;20259;-78
2023/04/02 08:40:15;;;;;;;5.40;4.90;;;;;;;;;;5049939;28;20184;-77
2023/04/02 08:42:45;;;;;;;6.37;4.60;;;;;;;;;;5047010;28;20189;-77
2023/04/02 08:45:29;;;;;;;4.97;4.47;;;;;;;;;;5032680;28;20223;-77
2023/04/02 08:47:58;;;;;;;5.57;5.07;;;;;;;;;;5051027;28;20597;-77
2023/04/02 08:50:33;;;;;;;6.10;4.90;;;;;;;;;;5047000;28;20227;-77
2023/04/02 08:53:00;;;;;;;5.53;5.03;;;;;;;;;;5037979;28;20198;-77
2023/04/02 08:55:26;;;;;;;5.87;5.37;;;;;;;;;;5049053;28;20212;-78
2023/04/02 08:58:15;;;;;;;5.60;5.10;;;;;;;;;;5049327;28;20215;-78
2023/04/02 09:00:43;;;;;;;4.67;4.27;;;;;;;;;;5039384;28;20233;-77
2023/04/02 09:03:13;;;;;;;4.80;4.30;;;;;;;;;;5050207;28;20269;-77
2023/04/02 09:05:42;;;;;;;5.30;4.80;;;;;;;;;;5050393;28;20208;-77
2023/04/02 09:08:14;;;;;;;5.33;4.93;;;;;;;;;;5050297;28;20213;-78
2023/04/02 09:10:43;;;;;;;5.57;4.97;;;;;;;;;;5049751;28;20205;-78
2023/04/02 09:13:20;;;;;;;5.37;4.60;;;;;;;;;;5045114;28;20257;-77
2023/04/02 09:15:47;;;;;;;4.60;4.20;;;;;;;;;;5050649;28;22205;-77
2023/04/02 09:18:17;;;;;;;4.50;4.10;;;;;;;;;;5049513;28;20214;-77
2023/04/02 09:20:43;;;;;;;4.80;4.40;;;;;;;;;;5050090;28;20205;-77
2023/04/02 09:23:16;;;;;;;5.10;4.60;;;;;;;;;;5050158;28;20185;-77
2023/04/02 09:25:44;;;;;;;4.83;4.43;;;;;;;;;;5049978;28;20243;-77
2023/04/02 09:28:11;;;;;;;4.93;4.47;;;;;;;;;;5049604;28;20194;-78
2023/04/02 09:30:56;;;;;;;4.43;4.03;;;;;;;;;;5045195;28;20209;-78
2023/04/02 09:33:39;;;;;;;4.30;3.90;;;;;;;;;;5040597;28;20555;-77
2023/04/02 09:36:16;;;;;;;4.70;4.30;;;;;;;;;;5048209;28;20182;-77
2023/04/02 09:38:56;;;;;;;5.07;4.57;;;;;;;;;;5047912;28;20712;-77
2023/04/02 09:41:26;;;;;;;4.53;4.10;;;;;;;;;;5042971;28;20205;-78
2023/04/02 09:44:04;;;;;;;4.83;4.33;;;;;;;;;;5045082;28;20182;-78
2023/04/02 09:46:30;;;;;;;5.17;4.67;;;;;;;;;;5042994;28;20177;-78
2023/04/02 09:48:59;;;;;;;6.03;5.53;;;;;;;;;;5048804;28;20243;-77
2023/04/02 09:51:26;;;;;;;6.70;6.10;;;;;;;;;;5046402;28;20205;-77
2023/04/02 09:54:02;;;;;;;7.83;7.03;;;;;;;;;;5049300;28;20192;-77
2023/04/02 09:56:29;;;;;;;5.70;4.70;;;;;;;;;;5037555;28;20191;-77
2023/04/02 09:59:03;;;;;;;5.00;4.60;;;;;;;;;;5048999;28;20221;-77
2023/04/02 10:01:32;;;;;;;5.40;4.73;;;;;;;;;;5042967;28;20207;-77
2023/04/02 10:03:58;;;;;;;5.60;5.10;;;;;;;;;;5034215;28;20185;-77
2023/04/02 10:06:26;;;;;;;6.07;4.93;;;;;;;;;;5045004;28;20696;-78
2023/04/02 10:08:52;;;;;;;5.40;4.90;;;;;;;;;;5048301;28;20272;-77
2023/04/02 10:11:26;;;;;;;7.77;6.43;;;;;;;;;;5043220;28;20293;-77
2023/04/02 10:13:54;;;;;;;6.33;5.73;;;;;;;;;;5048557;28;20200;-77
2023/04/02 10:16:36;;;;;;;4.50;4.10;;;;;;;;;;5049367;28;20655;-77
2023/04/02 10:19:12;;;;;;;3.63;3.10;;;;;;;;;;5046812;28;20209;-77
2023/04/02 10:21:39;;;;;;;3.90;3.20;;;;;;;;;;5043230;28;20229;-77
2023/04/02 10:24:12;;;;;;;2.90;2.70;;;;;;;;;;5044853;28;20208;-78
2023/04/02 10:26:45;;;;;;;1.80;1.70;;;;;;;;;;5045114;28;20541;-77
2023/04/02 10:29:21;;;;;;;1.90;1.20;;;;;;;;;;5047076;28;20182;-77
2023/04/02 10:31:55;;;;;;;1.00;0.90;;;;;;;;;;5031930;28;20205;-77
2023/04/02 10:34:23;;;;;;;0.83;0.83;;;;;;;;;;5046550;28;20181;-77
2023/04/02 10:36:58;;;;;;;0.70;0.70;;;;;;;;;;5049882;28;20188;-76
2023/04/02 10:39:30;;;;;;;0.77;0.77;;;;;;;;;;5037002;28;20209;-76
2023/04/02 10:42:02;;;;;;;1.13;0.90;;;;;;;;;;5051829;28;20691;-75
2023/04/02 10:44:38;;;;;;;1.20;1.10;;;;;;;;;;5020240;28;20350;-75
2023/04/02 10:47:07;;;;;;;1.50;1.40;;;;;;;;;;5045425;28;20189;-74
2023/04/02 10:49:34;;;;;;;1.30;1.20;;;;;;;;;;5048893;28;20257;-74
2023/04/02 10:52:02;;;;;;;1.10;1.00;;;;;;;;;;5049542;28;20223;-76
2023/04/02 10:54:47;;;;;;;1.00;0.90;;;;;;;;;;5051047;28;20201;-77
2023/04/02 10:57:16;;;;;;;1.00;0.90;;;;;;;;;;5050098;28;20235;-77
2023/04/02 10:59:54;;;;;;;1.10;1.00;;;;;;;;;;5048329;28;20185;-77
2023/04/02 11:02:28;;;;;;;0.90;0.90;;;;;;;;;;5050300;28;20240;-80
2023/04/02 11:04:55;;;;;;;1.30;1.20;;;;;;;;;;5051066;28;20213;-76
2023/04/02 11:07:24;;;;;;;0.90;0.90;;;;;;;;;;5049704;28;20302;-76
2023/04/02 11:09:51;;;;;;;0.97;0.80;;;;;;;;;;5051181;28;20185;-76
2023/04/02 11:12:21;;;;;;;0.97;0.90;;;;;;;;;;5050756;28;20225;-75
2023/04/02 11:14:48;;;;;;;0.80;0.80;;;;;;;;;;5046544;28;20185;-77
2023/04/02 11:17:15;;;;;;;0.80;0.80;;;;;;;;;;5046495;28;20186;-75
2023/04/02 11:19:42;;;;;;;0.80;0.80;;;;;;;;;;5048906;28;20264;-76
2023/04/02 11:22:22;;;;;;;0.77;0.77;;;;;;;;;;5048395;28;20706;-78
2023/04/02 11:24:50;;;;;;;3.00;0.90;;;;;;;;;;5048027;28;20925;-78
2023/04/02 11:27:19;;;;;;;0.70;0.70;;;;;;;;;;5050754;28;20693;-77
2023/04/02 11:30:01;;;;;;;0.60;0.60;;;;;;;;;;5051767;28;20193;-76
2023/04/02 11:32:33;;;;;;;0.70;0.70;;;;;;;;;;5049975;28;20241;-79
2023/04/02 11:35:01;;;;;;;1.20;0.70;;;;;;;;;;5031445;28;20649;-76
2023/04/02 11:37:38;;;;;;;0.90;0.60;;;;;;;;;;5049271;28;20650;-76
2023/04/02 11:40:10;;;;;;;0.80;0.80;;;;;;;;;;5049492;28;20645;-74
2023/04/02 11:42:41;;;;;;;0.70;0.70;;;;;;;;;;5053014;28;20214;-83
2023/04/02 11:45:22;;;;;;;1.00;0.90;;;;;;;;;;5039898;28;20191;-79
2023/04/02 11:48:02;;;;;;;0.80;0.80;;;;;;;;;;5053706;28;20204;-76
2023/04/02 11:50:30;;;;;;;0.70;0.70;;;;;;;;;;5048258;28;20192;-77
2023/04/02 11:53:14;;;;;;;0.70;0.70;;;;;;;;;;5051351;28;20632;-78
2023/04/02 11:55:45;;;;;;;2.53;0.80;;;;;;;;;;5050113;28;20606;-76
2023/04/02 11:58:37;;;;;;;0.70;0.70;;;;;;;;;;5050320;28;20544;-76
2023/04/02 12:01:13;;;;;;;0.90;0.90;;;;;;;;;;5049500;28;20194;-76
2023/04/02 12:03:45;;;;;;;2.20;1.00;;;;;;;;;;5046913;28;20246;-80
2023/04/02 12:06:27;;;;;;;1.10;1.00;;;;;;;;;;5016126;28;20193;-77
2023/04/02 12:09:08;;;;;;;1.10;1.00;;;;;;;;;;5050822;28;20185;-77
2023/04/02 12:11:36;;;;;;;1.20;1.00;;;;;;;;;;5051551;28;20260;-77
2023/04/02 12:14:23;;;;;;;0.80;0.80;;;;;;;;;;5049641;28;20178;-77
2023/04/02 12:16:50;;;;;;;1.00;1.00;;;;;;;;;;5038669;28;20288;-78
2023/04/02 12:19:17;;;;;;;1.03;1.00;;;;;;;;;;5049837;28;20902;-77
2023/04/02 12:21:46;;;;;;;2.30;1.00;;;;;;;;;;5048754;28;20193;-78
2023/04/02 12:24:19;;;;;;;0.87;0.87;;;;;;;;;;5049325;28;20174;-76
2023/04/02 12:26:45;;;;;;;1.07;0.97;;;;;;;;;;5051592;28;20166;-77
2023/04/02 12:29:24;;;;;;;1.03;0.93;;;;;;;;;;5051222;28;20182;-77
2023/04/02 12:31:52;;;;;;;0.80;0.80;;;;;;;;;;5032405;28;20210;-76
2023/04/02 12:34:19;;;;;;;0.90;0.90;;;;;;;;;;5048941;28;20700;-76
2023/04/02 12:36:56;;;;;;;0.90;0.90;;;;;;;;;;5048272;28;20200;-76
2023/04/02 12:39:22;;;;;;;0.80;0.80;;;;;;;;;;5064478;28;20251;-76
2023/04/02 12:41:49;;;;;;;0.70;0.70;;;;;;;;;;5049485;28;20194;-77
2023/04/02 12:44:16;;;;;;;1.20;0.83;;;;;;;;;;5050058;28;20178;-76
2023/04/02 12:46:43;;;;;;;1.10;0.80;;;;;;;;;;5049751;28;20832;-76
2023/04/02 12:49:28;;;;;;;1.70;1.40;;;;;;;;;;5047214;28;20182;-79
2023/04/02 12:51:55;;;;;;;1.00;0.93;;;;;;;;;;5039702;28;20224;-76
2023/04/02 12:54:21;;;;;;;0.70;0.70;;;;;;;;;;5045831;28;20185;-74
2023/04/02 12:56:48;;;;;;;1.03;0.97;;;;;;;;;;5046996;28;20228;-76
2023/04/02 12:59:23;;;;;;;0.97;0.90;;;;;;;;;;5046263;28;20373;-75
2023/04/02 13:01:56;;;;;;;1.60;1.50;;;;;;;;;;5044247;28;20590;-77
2023/04/02 13:04:23;;;;;;;0.97;0.80;;;;;;;;;;5049557;28;20192;-76
2023/04/02 13:06:54;;;;;;;0.80;0.80;;;;;;;;;;5047054;28;20193;-76
2023/04/02 13:09:35;;;;;;;2.63;1.10;;;;;;;;;;5043643;28;20609;-78
2023/04/02 13:12:02;;;;;;;1.93;1.07;;;;;;;;;;5040007;28;20240;-75
2023/04/02 13:14:29;;;;;;;1.43;0.90;;;;;;;;;;5045300;28;20213;-77
2023/04/02 13:16:55;;;;;;;1.07;0.97;;;;;;;;;;5047607;28;20188;-76
2023/04/02 13:19:29;;;;;;;1.50;1.40;;;;;;;;;;5046697;28;20285;-76
2023/04/02 13:21:56;;;;;;;6.40;5.83;;;;;;;;;;5046996;28;20240;-76
2023/04/02 13:24:24;;;;;;;0.97;0.80;;;;;;;;;;5046900;28;20195;-75
2023/04/02 13:26:52;;;;;;;0.80;0.80;;;;;;;;;;5045761;28;20213;-75
2023/04/02 13:29:19;;;;;;;0.80;0.80;;;;;;;;;;5048465;28;20281;-75
2023/04/02 13:31:45;;;;;;;10.50;9.37;;;;;;;;;;5047190;28;20267;-75
2023/04/02 13:34:11;;;;;;;2.37;1.50;;;;;;;;;;5046796;28;20774;-75
2023/04/02 13:36:38;;;;;;;1.10;1.00;;;;;;;;;;5027432;28;20629;-77
2023/04/02 13:39:04;;;;;;;0.80;0.80;;;;;;;;;;5043952;28;20205;-77
2023/04/02 13:41:33;;;;;;;0.97;0.90;;;;;;;;;;5044425;28;20201;-75
2023/04/02 13:44:00;;;;;;;0.83;0.83;;;;;;;;;;5046693;28;20251;-75
2023/04/02 13:46:31;;;;;;;0.87;0.87;;;;;;;;;;5047708;28;20170;-77
2023/04/02 13:48:57;;;;;;;1.17;1.00;;;;;;;;;;5047928;28;20194;-75
2023/04/02 13:51:30;;;;;;;1.13;1.03;;;;;;;;;;5052046;28;20228;-76
2023/04/02 13:54:03;;;;;;;1.50;1.20;;;;;;;;;;5046866;28;20204;-78
2023/04/02 13:56:29;;;;;;;1.90;1.80;;;;;;;;;;5047090;28;20208;-77
2023/04/02 13:58:56;;;;;;;0.90;0.90;;;;;;;;;;5046593;28;20202;-78
2023/04/02 14:01:23;;;;;;;1.40;1.30;;;;;;;;;;5048306;28;20236;-76
2023/04/02 14:03:49;;;;;;;1.13;1.03;;;;;;;;;;5045774;28;20186;-77
2023/04/02 14:06:36;;;;;;;0.93;0.80;;;;;;;;;;5045880;28;20235;-75
2023/04/02 14:09:03;;;;;;;1.83;1.10;;;;;;;;;;5048083;28;20192;-75
2023/04/02 14:11:55;;;;;;;0.90;0.90;;;;;;;;;;5048315;28;20234;-76
2023/04/02 14:14:48;;;;;;;1.63;1.20;;;;;;;;;;5051314;28;20196;-77
2023/04/02 14:17:21;;;;;;;1.40;1.30;;;;;;;;;;5032841;28;20190;-75
2023/04/02 14:19:57;;;;;;;1.20;1.10;;;;;;;;;;5049615;28;20178;-75
2023/04/02 14:22:37;;;;;;;1.83;0.90;;;;;;;;;;5052012;28;20201;-78
2023/04/02 14:25:15;;;;;;;0.90;0.90;;;;;;;;;;5051162;28;20174;-76
2023/04/02 14:27:56;;;;;;;1.97;1.70;;;;;;;;;;5048518;28;20652;-76
2023/04/02 14:30:46;;;;;;;2.10;1.90;;;;;;;;;;5048058;28;20182;-84
2023/04/02 14:33:12;;;;;;;4.07;2.90;;;;;;;;;;5049648;28;20251;-78
2023/04/02 14:35:43;;;;;;;1.30;1.20;;;;;;;;;;5050294;28;20524;-76
2023/04/02 14:38:09;;;;;;;1.30;1.20;;;;;;;;;;5049389;28;20263;-76
2023/04/02 14:40:49;;;;;;;1.10;1.00;;;;;;;;;;5048177;28;20209;-76
2023/04/02 14:43:30;;;;;;;1.37;1.27;;;;;;;;;;5046529;28;20221;-77
2023/04/02 14:45:58;;;;;;;2.00;1.70;;;;;;;;;;5049860;28;20182;-77
2023/04/02 14:48:30;;;;;;;1.20;1.10;;;;;;;;;;5051974;28;20227;-77
2023/04/02 14:51:03;;;;;;;1.13;1.03;;;;;;;;;;5047803;28;20225;-78
2023/04/02 14:53:46;;;;;;;1.67;1.20;;;;;;;;;;5048745;28;20212;-77
2023/04/02 14:56:14;;;;;;;1.20;1.10;;;;;;;;;;5050981;28;20261;-78
2023/04/02 14:58:45;;;;;;;0.90;0.90;;;;;;;;;;5050130;28;20237;-78
2023/04/02 15:01:14;;;;;;;1.30;1.20;;;;;;;;;;5050273;28;20191;-77
2023/04/02 15:03:44;;;;;;;1.00;1.00;;;;;;;;;;5048257;28;20285;-79
2023/04/02 15:06:13;;;;;;;0.97;0.90;;;;;;;;;;5051596;28;20702;-78
2023/04/02 15:08:42;;;;;;;1.40;1.20;;;;;;;;;;5048842;28;20323;-77
2023/04/02 15:11:25;;;;;;;1.30;1.20;;;;;;;;;;5046918;28;20198;-77